createdAt,value
2022-08-21T00:00:22.195Z,22.04
2022-08-21T00:02:26.294Z,22.04
2022-08-21T00:04:29.502Z,22.04
2022-08-21T00:06:32.160Z,22.04
2022-08-21T00:08:33.930Z,22.03
2022-08-21T00:10:35.952Z,22.03
2022-08-21T00:12:38.135Z,22.01
2022-08-21T00:14:39.839Z,22.01
2022-08-21T00:16:42.090Z,22.00
2022-08-21T00:18:43.658Z,22.00
2022-08-21T00:20:46.482Z,21.99
2022-08-21T00:22:48.598Z,21.97
2022-08-21T00:24:50.667Z,21.97
2022-08-21T00:26:52.979Z,21.96
2022-08-21T00:28:54.657Z,21.94
2022-08-21T00:30:57.708Z,21.93
2022-08-21T00:33:00.793Z,21.91
2022-08-21T00:35:02.430Z,21.90
2022-08-21T00:37:04.058Z,21.89
2022-08-21T00:39:08.394Z,21.88
2022-08-21T00:41:20.983Z,21.87
2022-08-21T00:43:36.062Z,21.85
2022-08-21T00:45:38.531Z,21.85
2022-08-21T00:47:40.424Z,21.84
2022-08-21T00:49:42.734Z,21.83
2022-08-21T00:51:51.373Z,21.81
2022-08-21T00:53:58.039Z,21.81
2022-08-21T00:56:03.383Z,21.79
2022-08-21T00:58:09.245Z,21.78
2022-08-21T01:00:16.148Z,21.77
2022-08-21T01:02:19.582Z,21.76
2022-08-21T01:04:23.209Z,21.76
2022-08-21T01:06:25.047Z,21.75
2022-08-21T01:08:28.648Z,21.74
2022-08-21T01:10:30.362Z,21.73
2022-08-21T01:12:33.701Z,21.72
2022-08-21T01:14:40.124Z,21.72
2022-08-21T01:16:45.132Z,21.70
2022-08-21T01:18:48.788Z,21.69
2022-08-21T01:21:12.758Z,21.65
2022-08-21T01:23:15.101Z,21.64
2022-08-21T01:25:18.279Z,21.64
2022-08-21T01:27:19.995Z,21.63
2022-08-21T01:29:48.256Z,21.59
2022-08-21T01:31:50.098Z,21.58
2022-08-21T01:33:52.082Z,21.57
2022-08-21T01:35:53.744Z,21.57
2022-08-21T01:37:55.460Z,21.54
2022-08-21T01:39:57.366Z,21.51
2022-08-21T01:41:59.001Z,21.51
2022-08-21T01:44:00.528Z,21.51
2022-08-21T01:46:04.437Z,21.50
2022-08-21T01:48:06.145Z,21.50
2022-08-21T01:50:12.276Z,21.47
2022-08-21T01:52:14.296Z,21.46
2022-08-21T01:54:16.027Z,21.46
2022-08-21T01:56:18.315Z,21.46
2022-08-21T01:58:20.305Z,21.43
2022-08-21T02:00:26.068Z,21.44
2022-08-21T02:02:27.775Z,21.44
2022-08-21T02:04:29.460Z,21.42
2022-08-21T02:06:31.094Z,21.40
2022-08-21T02:08:32.928Z,21.40
2022-08-21T02:10:35.155Z,21.39
2022-08-21T02:12:36.865Z,21.38
2022-08-21T02:14:38.546Z,21.37
2022-08-21T02:16:40.871Z,21.35
2022-08-21T02:18:42.806Z,21.36
2022-08-21T02:20:48.578Z,21.35
2022-08-21T02:22:57.158Z,21.33
2022-08-21T02:24:58.963Z,21.33
2022-08-21T02:27:00.615Z,21.32
2022-08-21T02:29:02.493Z,21.31
2022-08-21T02:31:05.550Z,21.31
2022-08-21T02:33:08.555Z,21.31
2022-08-21T02:35:11.175Z,21.31
2022-08-21T02:37:13.573Z,21.31
2022-08-21T02:39:15.118Z,21.31
2022-08-21T02:41:20.460Z,21.31
2022-08-21T02:43:24.798Z,21.31
2022-08-21T02:45:29.929Z,21.31
2022-08-21T02:47:31.655Z,21.31
2022-08-21T02:49:33.366Z,21.31
2022-08-21T02:51:34.961Z,21.29
2022-08-21T02:53:36.886Z,21.29
2022-08-21T02:55:39.002Z,21.29
2022-08-21T02:57:40.604Z,21.28
2022-08-21T02:59:45.375Z,21.27
2022-08-21T03:01:47.109Z,21.28
2022-08-21T03:03:52.153Z,21.28
2022-08-21T03:05:54.227Z,21.27
2022-08-21T03:07:56.130Z,21.26
2022-08-21T03:09:57.652Z,21.26
2022-08-21T03:11:59.506Z,21.27
2022-08-21T03:14:01.125Z,21.27
2022-08-21T03:16:02.992Z,21.27
2022-08-21T03:18:07.850Z,21.26
2022-08-21T03:20:10.489Z,21.27
2022-08-21T03:22:12.246Z,21.28
2022-08-21T03:24:13.871Z,21.27
2022-08-21T03:26:15.564Z,21.28
2022-08-21T03:28:22.471Z,21.27
2022-08-21T03:30:24.169Z,21.27
2022-08-21T03:32:25.722Z,21.29
2022-08-21T03:34:27.282Z,21.29
2022-08-21T03:36:28.899Z,21.28
2022-08-21T03:38:32.360Z,21.28
2022-08-21T03:40:34.861Z,21.29
2022-08-21T03:42:36.642Z,21.28
2022-08-21T03:44:38.578Z,21.28
2022-08-21T03:46:41.179Z,21.28
2022-08-21T03:48:42.939Z,21.28
2022-08-21T03:50:45.986Z,21.28
2022-08-21T03:52:47.375Z,21.28
2022-08-21T03:54:48.958Z,21.29
2022-08-21T03:56:50.608Z,21.28
2022-08-21T03:58:52.385Z,21.28
2022-08-21T04:00:58.396Z,21.28
2022-08-21T04:03:00.214Z,21.27
2022-08-21T04:05:01.850Z,21.28
2022-08-21T04:07:04.538Z,21.29
2022-08-21T04:09:06.210Z,21.27
2022-08-21T04:11:08.574Z,21.28
2022-08-21T04:13:10.106Z,21.28
2022-08-21T04:15:11.901Z,21.28
2022-08-21T04:17:13.439Z,21.26
2022-08-21T04:19:15.410Z,21.27
2022-08-21T04:21:17.143Z,21.28
2022-08-21T04:23:23.517Z,21.29
2022-08-21T04:25:28.397Z,21.27
2022-08-21T04:27:29.960Z,21.28
2022-08-21T04:29:31.490Z,21.29
2022-08-21T04:31:34.659Z,21.27
2022-08-21T04:33:36.296Z,21.28
2022-08-21T04:35:38.104Z,21.28
2022-08-21T04:37:42.028Z,21.29
2022-08-21T04:39:44.054Z,21.28
2022-08-21T04:41:45.624Z,21.28
2022-08-21T04:43:47.540Z,21.28
2022-08-21T04:45:50.264Z,21.27
2022-08-21T04:47:54.011Z,21.28
2022-08-21T04:49:55.538Z,21.28
2022-08-21T04:51:57.206Z,21.28
2022-08-21T04:54:11.942Z,21.27
2022-08-21T04:56:26.976Z,21.27
2022-08-21T04:58:29.762Z,21.29
2022-08-21T05:00:31.419Z,21.27
2022-08-21T05:02:34.069Z,21.29
2022-08-21T05:04:40.508Z,21.28
2022-08-21T05:06:45.282Z,21.29
2022-08-21T05:08:49.588Z,21.28
2022-08-21T05:10:51.657Z,21.30
2022-08-21T05:12:53.946Z,21.31
2022-08-21T05:14:55.486Z,21.31
2022-08-21T05:16:57.198Z,21.29
2022-08-21T05:18:59.625Z,21.31
2022-08-21T05:21:01.077Z,21.32
2022-08-21T05:23:09.143Z,21.32
2022-08-21T05:25:11.736Z,21.32
2022-08-21T05:27:14.754Z,21.33
2022-08-21T05:29:20.071Z,21.34
2022-08-21T05:31:21.616Z,21.35
2022-08-21T05:33:23.687Z,21.36
2022-08-21T05:35:25.910Z,21.36
2022-08-21T05:37:27.453Z,21.37
2022-08-21T05:39:29.201Z,21.38
2022-08-21T05:41:51.301Z,21.39
2022-08-21T05:43:52.846Z,21.40
2022-08-21T05:45:54.449Z,21.42
2022-08-21T05:47:56.045Z,21.43
2022-08-21T05:49:58.078Z,21.45
2022-08-21T05:52:00.020Z,21.44
2022-08-21T05:54:01.756Z,21.44
2022-08-21T05:56:05.126Z,21.44
2022-08-21T05:58:06.786Z,21.46
2022-08-21T06:00:13.515Z,21.46
2022-08-21T06:02:15.072Z,21.48
2022-08-21T06:04:17.372Z,21.51
2022-08-21T06:06:18.954Z,21.52
2022-08-21T06:08:21.798Z,21.54
2022-08-21T06:10:23.268Z,21.56
2022-08-21T06:12:25.758Z,21.57
2022-08-21T06:14:27.576Z,21.59
2022-08-21T06:16:30.600Z,21.59
2022-08-21T06:18:32.458Z,21.61
2022-08-21T06:20:34.265Z,21.62
2022-08-21T06:24:37.341Z,21.63
2022-08-21T06:26:39.712Z,21.63
2022-08-21T06:28:42.134Z,21.64
2022-08-21T06:30:43.753Z,21.63
2022-08-21T06:32:45.347Z,21.61
2022-08-21T06:34:47.049Z,21.64
2022-08-21T06:38:51.777Z,21.63
2022-08-21T06:40:53.567Z,21.61
2022-08-21T06:42:55.309Z,21.64
2022-08-21T06:44:58.489Z,21.65
2022-08-21T06:47:00.085Z,21.63
2022-08-21T06:49:01.832Z,21.64
2022-08-21T06:51:03.797Z,21.66
2022-08-21T06:53:12.906Z,21.66
2022-08-21T06:55:21.579Z,21.64
2022-08-21T06:57:26.530Z,21.66
2022-08-21T06:59:28.288Z,21.66
2022-08-21T07:01:30.138Z,21.66
2022-08-21T07:03:38.076Z,21.68
2022-08-21T07:05:39.939Z,21.67
2022-08-21T07:07:41.854Z,21.69
2022-08-21T07:09:43.712Z,21.69
2022-08-21T07:11:50.414Z,21.70
2022-08-21T07:13:54.963Z,21.71
2022-08-21T07:16:01.629Z,21.72
2022-08-21T07:18:06.215Z,21.73
2022-08-21T07:20:08.462Z,21.75
2022-08-21T07:22:10.140Z,21.77
2022-08-21T07:24:12.925Z,21.80
2022-08-21T07:26:19.139Z,21.83
2022-08-21T07:28:20.915Z,21.85
2022-08-21T07:30:23.728Z,21.87
2022-08-21T07:32:25.677Z,21.88
2022-08-21T07:34:27.286Z,21.87
2022-08-21T07:36:29.044Z,21.89
2022-08-21T07:38:30.801Z,21.91
2022-08-21T07:40:32.496Z,21.92
2022-08-21T07:42:34.306Z,21.93
2022-08-21T07:44:35.873Z,21.95
2022-08-21T07:46:37.505Z,21.98
2022-08-21T07:48:39.514Z,22.01
2022-08-21T07:50:42.333Z,22.02
2022-08-21T07:52:44.595Z,22.04
2022-08-21T07:54:46.228Z,22.07
2022-08-21T07:56:47.963Z,22.10
2022-08-21T07:58:49.853Z,22.14
2022-08-21T08:00:51.853Z,22.18
2022-08-21T08:02:54.960Z,22.21
2022-08-21T08:05:04.709Z,22.22
2022-08-21T08:07:06.505Z,22.25
2022-08-21T08:09:08.457Z,22.26
2022-08-21T08:11:12.052Z,22.31
2022-08-21T08:13:15.651Z,22.35
2022-08-21T08:15:20.986Z,22.38
2022-08-21T08:17:24.255Z,22.41
2022-08-21T08:19:26.072Z,22.45
2022-08-21T08:21:28.475Z,22.48
2022-08-21T08:23:31.478Z,22.52
2022-08-21T08:25:36.678Z,22.53
2022-08-21T08:27:39.012Z,22.56
2022-08-21T08:29:40.838Z,22.57
2022-08-21T08:31:42.673Z,22.60
2022-08-21T08:33:44.303Z,22.63
2022-08-21T08:35:49.287Z,22.64
2022-08-21T08:37:52.436Z,22.65
2022-08-21T08:39:54.676Z,22.67
2022-08-21T08:42:32.310Z,22.69
2022-08-21T08:44:30.543Z,22.70
2022-08-21T08:46:51.513Z,22.72
2022-08-21T08:49:04.377Z,22.74
2022-08-21T08:51:14.517Z,22.76
2022-08-21T08:53:23.188Z,22.80
2022-08-21T08:55:29.714Z,22.82
2022-08-21T08:57:33.246Z,22.86
2022-08-21T08:59:43.787Z,22.86
2022-08-21T09:01:48.727Z,22.89
2022-08-21T09:03:52.978Z,22.91
2022-08-21T09:06:34.134Z,22.94
2022-08-21T09:08:59.907Z,22.95
2022-08-21T09:11:15.344Z,22.97
2022-08-21T09:13:25.038Z,23.00
2022-08-21T09:15:34.383Z,23.01
2022-08-21T09:18:15.159Z,23.04
2022-08-21T09:20:29.172Z,23.06
2022-08-21T09:22:53.351Z,23.10
2022-08-21T09:25:09.337Z,23.11
2022-08-21T09:27:14.618Z,23.14
2022-08-21T09:29:21.610Z,23.16
2022-08-21T09:31:30.787Z,23.16
2022-08-21T09:33:32.533Z,23.18
2022-08-21T09:35:36.259Z,23.22
2022-08-21T09:37:52.838Z,23.24
2022-08-21T09:39:54.570Z,23.27
2022-08-21T09:42:05.309Z,23.31
2022-08-21T09:44:09.307Z,23.34
2022-08-21T09:46:21.287Z,23.36
2022-08-21T09:48:26.961Z,23.40
2022-08-21T09:50:29.122Z,23.43
2022-08-21T09:52:31.927Z,23.46
2022-08-21T09:54:39.922Z,23.50
2022-08-21T09:57:16.630Z,23.54
2022-08-21T09:59:27.524Z,23.58
2022-08-21T10:01:29.361Z,23.62
2022-08-21T10:03:31.240Z,23.66
2022-08-21T10:05:33.213Z,23.71
2022-08-21T10:07:38.287Z,23.74
2022-08-21T10:09:41.014Z,23.79
2022-08-21T10:12:00.701Z,23.85
2022-08-21T10:14:11.468Z,23.90
2022-08-21T10:16:23.026Z,23.96
2022-08-21T10:18:40.452Z,24.00
2022-08-21T10:20:49.007Z,24.08
2022-08-21T10:23:19.937Z,24.17
2022-08-21T10:25:31.818Z,24.29
2022-08-21T10:27:52.357Z,24.43
2022-08-21T10:30:02.718Z,24.55
2022-08-21T10:32:26.358Z,24.69
2022-08-21T10:34:55.613Z,24.78
2022-08-21T10:37:10.469Z,24.91
2022-08-21T10:39:36.135Z,25.05
2022-08-21T10:41:59.386Z,25.22
2022-08-21T10:44:24.883Z,25.39
2022-08-21T10:46:57.020Z,25.58
2022-08-21T10:49:13.243Z,25.76
2022-08-21T10:51:29.544Z,25.95
2022-08-21T10:53:45.853Z,26.14
2022-08-21T10:55:57.759Z,26.34
2022-08-21T10:58:05.203Z,26.54
2022-08-21T11:00:13.104Z,26.72
2022-08-21T11:02:23.517Z,26.92
2022-08-21T11:05:00.394Z,27.13
2022-08-21T11:07:17.111Z,27.32
2022-08-21T11:09:22.740Z,27.49
2022-08-21T11:11:35.912Z,27.65
2022-08-21T11:13:46.964Z,27.81
2022-08-21T11:16:01.599Z,28.00
2022-08-21T11:18:15.558Z,28.17
2022-08-21T11:20:29.755Z,28.34
2022-08-21T11:22:41.903Z,28.50
2022-08-21T11:25:04.000Z,28.64
2022-08-21T11:27:25.484Z,28.84
2022-08-21T11:29:40.597Z,29.01
2022-08-21T11:32:10.491Z,29.17
2022-08-21T11:34:21.071Z,29.34
2022-08-21T11:36:33.648Z,29.49
2022-08-21T11:38:41.295Z,29.65
2022-08-21T11:41:06.562Z,29.78
2022-08-21T11:43:34.328Z,29.93
2022-08-21T11:45:53.131Z,30.07
2022-08-21T11:48:17.723Z,30.19
2022-08-21T11:50:34.136Z,30.32
2022-08-21T11:53:04.905Z,30.45
2022-08-21T11:55:27.610Z,30.56
2022-08-21T11:57:40.078Z,30.68
2022-08-21T11:59:52.234Z,30.78
2022-08-21T12:01:55.544Z,30.90
2022-08-21T12:04:09.322Z,30.98
2022-08-21T12:06:24.082Z,31.05
2022-08-21T12:08:36.785Z,31.13
2022-08-21T12:10:43.415Z,31.20
2022-08-21T12:12:45.820Z,31.28
2022-08-21T12:14:53.608Z,31.34
2022-08-21T12:17:07.253Z,31.41
2022-08-21T12:19:21.409Z,31.48
2022-08-21T12:21:28.510Z,31.56
2022-08-21T12:23:52.889Z,31.60
2022-08-21T12:26:26.253Z,31.66
2022-08-21T12:28:30.012Z,31.75
2022-08-21T12:30:38.894Z,31.80
2022-08-21T12:32:43.936Z,31.85
2022-08-21T12:35:07.872Z,31.90
2022-08-21T12:37:25.937Z,31.93
2022-08-21T12:39:34.626Z,31.96
2022-08-21T12:41:49.196Z,32.01
2022-08-21T12:44:08.082Z,32.07
2022-08-21T12:46:19.612Z,32.11
2022-08-21T12:48:27.268Z,32.15
2022-08-21T12:50:47.004Z,32.15
2022-08-21T12:53:18.547Z,32.18
2022-08-21T12:55:29.188Z,32.21
2022-08-21T12:57:31.615Z,32.24
2022-08-21T12:59:37.386Z,32.25
2022-08-21T13:01:46.977Z,32.25
2022-08-21T13:04:04.300Z,32.27
2022-08-21T13:06:07.667Z,32.30
2022-08-21T13:08:13.490Z,32.33
2022-08-21T13:10:23.503Z,32.34
2022-08-21T13:12:32.331Z,32.40
2022-08-21T13:14:48.301Z,32.41
2022-08-21T13:16:55.279Z,32.46
2022-08-21T13:19:04.988Z,32.47
2022-08-21T13:21:15.887Z,32.48
2022-08-21T13:23:29.825Z,32.50
2022-08-21T13:25:36.709Z,32.53
2022-08-21T13:27:38.342Z,32.55
2022-08-21T13:29:40.123Z,32.57
2022-08-21T13:31:58.921Z,32.56
2022-08-21T13:34:00.655Z,32.58
2022-08-21T13:36:05.127Z,32.58
2022-08-21T13:38:07.076Z,32.59
2022-08-21T13:40:15.894Z,32.59
2022-08-21T13:42:17.843Z,32.62
2022-08-21T13:44:32.324Z,32.62
2022-08-21T13:46:36.805Z,32.62
2022-08-21T13:48:39.351Z,32.63
2022-08-21T13:50:42.373Z,32.64
2022-08-21T13:53:06.034Z,32.61
2022-08-21T13:55:18.300Z,32.60
2022-08-21T13:57:30.010Z,32.60
2022-08-21T13:59:34.632Z,32.60
2022-08-21T14:01:54.239Z,32.60
2022-08-21T14:04:02.898Z,32.63
2022-08-21T14:06:32.245Z,32.64
2022-08-21T14:08:36.995Z,32.66
2022-08-21T14:10:45.360Z,32.63
2022-08-21T14:12:56.036Z,32.63
2022-08-21T14:14:58.920Z,32.65
2022-08-21T14:17:23.960Z,32.65
2022-08-21T14:19:38.858Z,32.62
2022-08-21T14:21:47.069Z,32.62
2022-08-21T14:24:21.033Z,32.60
2022-08-21T14:26:24.349Z,32.58
2022-08-21T14:28:29.450Z,32.55
2022-08-21T14:30:34.645Z,32.51
2022-08-21T14:32:44.748Z,32.49
2022-08-21T14:34:47.680Z,32.49
2022-08-21T14:36:52.830Z,32.46
2022-08-21T14:38:54.676Z,32.42
2022-08-21T14:41:03.629Z,32.40
2022-08-21T14:43:05.267Z,32.38
2022-08-21T14:45:15.698Z,32.32
2022-08-21T14:47:18.118Z,32.29
2022-08-21T14:49:22.924Z,32.25
2022-08-21T14:51:25.011Z,32.22
2022-08-21T14:53:26.583Z,32.18
2022-08-21T14:55:28.600Z,32.15
2022-08-21T14:57:31.725Z,32.12
2022-08-21T14:59:37.028Z,32.11
2022-08-21T15:01:42.270Z,32.06
2022-08-21T15:03:46.803Z,32.04
2022-08-21T15:05:49.627Z,32.01
2022-08-21T15:07:51.171Z,31.98
2022-08-21T15:09:53.012Z,31.94
2022-08-21T15:11:59.477Z,31.89
2022-08-21T15:14:05.408Z,31.84
2022-08-21T15:16:10.325Z,31.79
2022-08-21T15:18:17.993Z,31.75
2022-08-21T15:20:22.305Z,31.70
2022-08-21T15:22:28.110Z,31.67
2022-08-21T15:24:31.055Z,31.62
2022-08-21T15:26:35.477Z,31.58
2022-08-21T15:28:40.520Z,31.52
2022-08-21T15:30:43.254Z,31.48
2022-08-21T15:32:47.917Z,31.44
2022-08-21T15:34:51.129Z,31.41
2022-08-21T15:36:57.123Z,31.37
2022-08-21T15:39:01.802Z,31.32
2022-08-21T15:41:05.385Z,31.29
2022-08-21T15:43:08.104Z,31.25
2022-08-21T15:45:13.830Z,31.21
2022-08-21T15:47:18.802Z,31.14
2022-08-21T15:49:20.710Z,31.10
2022-08-21T15:51:22.441Z,31.05
2022-08-21T15:53:24.218Z,31.00
2022-08-21T15:55:28.564Z,30.96
2022-08-21T15:57:30.419Z,30.92
2022-08-21T15:59:40.479Z,30.88
2022-08-21T16:01:44.612Z,30.83
2022-08-21T16:03:50.777Z,30.77
2022-08-21T16:05:53.892Z,30.75
2022-08-21T16:07:55.713Z,30.69
2022-08-21T16:09:57.445Z,30.67
2022-08-21T16:12:01.194Z,30.63
2022-08-21T16:14:02.753Z,30.61
2022-08-21T16:16:05.817Z,30.57
2022-08-21T16:18:07.597Z,30.53
2022-08-21T16:20:13.080Z,30.51
2022-08-21T16:22:15.044Z,30.48
2022-08-21T16:24:16.682Z,30.44
2022-08-21T16:26:18.739Z,30.42
2022-08-21T16:28:21.686Z,30.38
2022-08-21T16:30:24.546Z,30.32
2022-08-21T16:32:32.874Z,30.29
2022-08-21T16:34:35.672Z,30.26
2022-08-21T16:36:37.443Z,30.21
2022-08-21T16:38:44.890Z,30.17
2022-08-21T16:40:46.859Z,30.12
2022-08-21T16:42:48.829Z,30.08
2022-08-21T16:44:50.847Z,30.03
2022-08-21T16:46:52.876Z,29.99
2022-08-21T16:48:55.013Z,29.95
2022-08-21T16:50:58.435Z,29.91
2022-08-21T16:53:03.953Z,29.88
2022-08-21T16:55:06.356Z,29.82
2022-08-21T16:57:08.076Z,29.70
2022-08-21T16:59:11.597Z,29.56
2022-08-21T17:01:16.371Z,29.50
2022-08-21T17:03:21.840Z,29.49
2022-08-21T17:05:23.464Z,29.50
2022-08-21T17:07:25.626Z,29.49
2022-08-21T17:09:27.248Z,29.50
2022-08-21T17:11:38.932Z,29.51
2022-08-21T17:13:40.726Z,29.51
2022-08-21T17:15:43.143Z,29.51
2022-08-21T17:17:44.752Z,29.50
2022-08-21T17:19:46.612Z,29.50
2022-08-21T17:21:48.537Z,29.52
2022-08-21T17:23:50.262Z,29.53
2022-08-21T17:25:55.403Z,29.53
2022-08-21T17:27:57.607Z,29.51
2022-08-21T17:29:59.511Z,29.50
2022-08-21T17:32:04.015Z,29.48
2022-08-21T17:34:05.733Z,29.49
2022-08-21T17:36:08.413Z,29.48
2022-08-21T17:38:11.648Z,29.46
2022-08-21T17:40:17.485Z,29.45
2022-08-21T17:42:19.413Z,29.44
2022-08-21T17:44:21.785Z,29.43
2022-08-21T17:46:37.364Z,29.40
2022-08-21T17:48:39.232Z,29.38
2022-08-21T17:50:40.865Z,29.35
2022-08-21T17:52:46.130Z,29.31
2022-08-21T17:54:47.590Z,29.27
2022-08-21T17:56:50.007Z,29.23
2022-08-21T17:58:52.189Z,29.20
2022-08-21T18:00:57.585Z,29.15
2022-08-21T18:03:13.913Z,29.09
2022-08-21T18:05:15.522Z,29.04
2022-08-21T18:07:31.294Z,29.00
2022-08-21T18:09:34.486Z,28.95
2022-08-21T18:11:37.698Z,28.89
2022-08-21T18:13:40.252Z,28.85
2022-08-21T18:15:45.953Z,28.80
2022-08-21T18:17:52.267Z,28.74
2022-08-21T18:19:54.439Z,28.69
2022-08-21T18:21:58.771Z,28.66
2022-08-21T18:24:02.101Z,28.60
2022-08-21T18:26:07.329Z,28.54
2022-08-21T18:28:11.367Z,28.48
2022-08-21T18:30:17.199Z,28.43
2022-08-21T18:32:30.681Z,28.36
2022-08-21T18:34:41.246Z,28.30
2022-08-21T18:36:45.839Z,28.24
2022-08-21T18:38:47.403Z,28.19
2022-08-21T18:40:55.764Z,28.12
2022-08-21T18:42:59.961Z,28.06
2022-08-21T18:45:03.786Z,27.99
2022-08-21T18:47:12.307Z,27.91
2022-08-21T18:49:14.266Z,27.84
2022-08-21T18:51:16.375Z,27.79
2022-08-21T18:53:27.539Z,27.72
2022-08-21T18:55:30.191Z,27.66
2022-08-21T18:57:32.224Z,27.59
2022-08-21T18:59:34.452Z,27.54
2022-08-21T19:01:36.313Z,27.46
2022-08-21T19:03:38.163Z,27.41
2022-08-21T19:05:46.294Z,27.35
2022-08-21T19:07:50.145Z,27.28
2022-08-21T19:10:24.586Z,27.22
2022-08-21T19:12:20.631Z,27.15
2022-08-21T19:14:23.032Z,27.08
2022-08-21T19:16:30.361Z,27.05
2022-08-21T19:18:35.596Z,26.99
2022-08-21T19:20:41.452Z,26.92
2022-08-21T19:22:42.954Z,26.88
2022-08-21T19:24:55.302Z,26.82
2022-08-21T19:26:57.405Z,26.77
2022-08-21T19:29:03.751Z,26.70
2022-08-21T19:31:16.347Z,26.61
2022-08-21T19:33:25.872Z,26.56
2022-08-21T19:35:27.593Z,26.49
2022-08-21T19:37:29.387Z,26.42
2022-08-21T19:39:33.723Z,26.35
2022-08-21T19:41:38.724Z,26.29
2022-08-21T19:43:52.292Z,26.21
2022-08-21T19:45:56.514Z,26.16
2022-08-21T19:47:58.702Z,26.10
2022-08-21T19:50:03.725Z,26.02
2022-08-21T19:52:19.247Z,25.96
2022-08-21T19:54:33.279Z,25.88
2022-08-21T19:56:34.950Z,25.82
2022-08-21T19:58:40.229Z,25.75
2022-08-21T20:00:44.021Z,25.69
2022-08-21T20:02:47.941Z,25.64
2022-08-21T20:07:12.103Z,25.51
2022-08-21T20:09:16.221Z,25.44
2022-08-21T20:11:25.920Z,25.39
2022-08-21T20:13:33.612Z,25.34
2022-08-21T20:15:36.321Z,25.28
2022-08-21T20:17:39.061Z,25.23
2022-08-21T20:19:43.729Z,25.17
2022-08-21T20:21:45.597Z,25.12
2022-08-21T20:26:10.833Z,25.00
2022-08-21T20:28:13.690Z,24.96
2022-08-21T20:30:22.653Z,24.91
2022-08-21T20:32:24.561Z,24.84
2022-08-21T20:34:28.168Z,24.79
2022-08-21T20:36:29.838Z,24.74
2022-08-21T20:38:31.688Z,24.66
2022-08-21T20:40:34.300Z,24.60
2022-08-21T20:42:48.324Z,24.55
2022-08-21T20:44:50.209Z,24.47
2022-08-21T20:46:52.498Z,24.42
2022-08-21T20:48:57.163Z,24.39
2022-08-21T20:51:27.928Z,24.32
2022-08-21T20:53:43.698Z,24.27
2022-08-21T20:55:48.735Z,24.20
2022-08-21T20:58:05.776Z,24.17
2022-08-21T21:00:20.578Z,24.15
2022-08-21T21:02:34.146Z,24.08
2022-08-21T21:04:51.620Z,24.04
2022-08-21T21:06:58.878Z,24.00
2022-08-21T21:09:19.064Z,23.95
2022-08-21T21:11:33.615Z,23.92
2022-08-21T21:16:13.861Z,23.80
2022-08-21T21:18:30.656Z,23.76
2022-08-21T21:20:39.906Z,23.74
2022-08-21T21:22:57.363Z,23.68
2022-08-21T21:25:19.553Z,23.64
2022-08-21T21:27:48.921Z,23.58
2022-08-21T21:30:02.679Z,23.56
2022-08-21T21:32:05.845Z,23.53
2022-08-21T21:34:07.747Z,23.50
2022-08-21T21:36:30.716Z,23.45
2022-08-21T21:38:53.712Z,23.42
2022-08-21T21:41:30.175Z,23.37
2022-08-21T21:43:56.425Z,23.33
2022-08-21T21:46:13.556Z,23.29
2022-08-21T21:48:36.391Z,23.26
2022-08-21T21:51:29.951Z,23.20
2022-08-21T21:53:57.321Z,23.16
2022-08-21T21:56:06.560Z,23.08
2022-08-21T21:58:28.845Z,23.05
2022-08-21T22:00:33.945Z,23.03
2022-08-21T22:02:45.488Z,23.00
2022-08-21T22:05:03.781Z,22.96
2022-08-21T22:07:18.738Z,22.91
2022-08-21T22:09:41.001Z,22.88
2022-08-21T22:11:55.516Z,22.85
2022-08-21T22:14:15.399Z,22.81
2022-08-21T22:16:18.486Z,22.78
2022-08-21T22:18:35.272Z,22.74
2022-08-21T22:21:02.631Z,22.69
2022-08-21T22:25:37.795Z,22.61
2022-08-21T22:27:41.378Z,22.58
2022-08-21T22:29:57.797Z,22.56
2022-08-21T22:32:10.401Z,22.51
2022-08-21T22:34:21.264Z,22.49
2022-08-21T22:36:24.287Z,22.47
2022-08-21T22:38:36.892Z,22.43
2022-08-21T22:40:41.329Z,22.39
2022-08-21T22:42:43.097Z,22.36
2022-08-21T22:45:04.713Z,22.32
2022-08-21T22:47:18.586Z,22.30
2022-08-21T22:49:29.435Z,22.26
2022-08-21T22:51:43.323Z,22.21
2022-08-21T22:53:53.641Z,22.20
2022-08-21T22:56:01.133Z,22.18
2022-08-21T22:58:05.459Z,22.13
2022-08-21T23:00:13.576Z,22.12
2022-08-21T23:02:42.155Z,22.08
2022-08-21T23:04:49.636Z,22.06
2022-08-21T23:06:56.454Z,22.03
2022-08-21T23:09:00.561Z,22.01
2022-08-21T23:11:12.733Z,21.98
2022-08-21T23:13:19.094Z,21.97
2022-08-21T23:15:21.216Z,21.95
2022-08-21T23:17:38.262Z,21.91
2022-08-21T23:19:57.777Z,21.87
2022-08-21T23:22:21.201Z,21.85
2022-08-21T23:24:50.751Z,21.81
2022-08-21T23:27:21.328Z,21.77
2022-08-21T23:29:48.686Z,21.74
2022-08-21T23:32:35.517Z,21.69
2022-08-21T23:35:19.941Z,21.63
2022-08-21T23:37:51.698Z,21.61
2022-08-21T23:40:18.705Z,21.57
2022-08-21T23:42:52.606Z,21.53
2022-08-21T23:45:32.942Z,21.51
2022-08-21T23:47:43.933Z,21.46
2022-08-21T23:50:33.898Z,21.43
2022-08-21T23:52:48.462Z,21.41
2022-08-21T23:55:03.793Z,21.39
2022-08-21T23:57:38.066Z,21.36
2022-08-21T23:59:59.943Z,21.33
